createdAt,value
2019-04-10T00:00:44.843Z,5.90
2019-04-10T00:03:25.848Z,5.80
2019-04-10T00:05:44.613Z,5.70
2019-04-10T00:08:14.294Z,5.50
2019-04-10T00:10:43.747Z,5.40
2019-04-10T00:13:12.484Z,5.40
2019-04-10T00:15:41.021Z,5.30
2019-04-10T00:18:09.572Z,5.40
2019-04-10T00:20:38.099Z,5.30
2019-04-10T00:23:06.926Z,5.10
2019-04-10T00:25:35.772Z,5.00
2019-04-10T00:28:05.259Z,4.80
2019-04-10T00:30:33.875Z,4.70
2019-04-10T00:33:02.695Z,4.50
2019-04-10T00:35:31.736Z,4.40
2019-04-10T00:38:01.403Z,4.30
2019-04-10T00:40:31.169Z,4.30
2019-04-10T00:43:00.334Z,3.90
2019-04-10T00:45:29.303Z,3.80
2019-04-10T00:47:58.176Z,3.60
2019-04-10T00:50:26.631Z,3.50
2019-04-10T00:52:55.462Z,3.80
2019-04-10T00:55:24.243Z,3.70
2019-04-10T00:57:52.719Z,3.50
2019-04-10T01:00:22.006Z,3.40
2019-04-10T01:02:51.382Z,3.50
2019-04-10T01:05:20.028Z,3.60
2019-04-10T01:07:48.831Z,3.60
2019-04-10T01:10:17.874Z,3.50
2019-04-10T01:12:46.446Z,3.50
2019-04-10T01:15:15.311Z,3.40
2019-04-10T01:17:44.027Z,3.60
2019-04-10T01:20:13.341Z,3.50
2019-04-10T01:22:41.931Z,3.50
2019-04-10T01:25:10.471Z,3.60
2019-04-10T01:27:40.998Z,3.70
2019-04-10T01:30:10.468Z,3.70
2019-04-10T01:32:39.771Z,3.80
2019-04-10T01:35:08.551Z,3.70
2019-04-10T01:37:48.793Z,3.70
2019-04-10T01:40:07.792Z,3.70
2019-04-10T01:42:36.838Z,3.70
2019-04-10T01:45:09.253Z,4.00
2019-04-10T01:47:37.788Z,3.90
2019-04-10T01:50:06.809Z,3.80
2019-04-10T01:52:35.697Z,3.80
2019-04-10T01:55:18.084Z,3.70
2019-04-10T01:57:36.664Z,3.50
2019-04-10T02:00:08.583Z,3.50
2019-04-10T02:02:51.814Z,3.40
2019-04-10T02:05:20.843Z,3.20
2019-04-10T02:08:02.143Z,3.10
2019-04-10T02:10:20.397Z,3.10
2019-04-10T02:12:49.054Z,3.20
2019-04-10T02:15:17.959Z,3.30
2019-04-10T02:17:46.747Z,3.40
2019-04-10T02:20:15.359Z,3.30
2019-04-10T02:22:44.231Z,3.20
2019-04-10T02:25:13.819Z,3.10
2019-04-10T02:27:42.644Z,3.20
2019-04-10T02:30:14.658Z,3.10
2019-04-10T02:32:45.286Z,3.10
2019-04-10T02:35:16.971Z,3.20
2019-04-10T02:37:43.648Z,3.00
2019-04-10T02:40:13.095Z,3.00
2019-04-10T02:42:43.273Z,3.10
2019-04-10T02:45:12.782Z,3.10
2019-04-10T02:47:43.254Z,3.10
2019-04-10T02:50:14.016Z,2.90
2019-04-10T02:52:43.269Z,2.80
2019-04-10T02:55:12.354Z,2.50
2019-04-10T02:57:41.374Z,2.60
2019-04-10T03:00:13.345Z,2.50
2019-04-10T03:02:41.997Z,2.40
2019-04-10T03:05:10.918Z,2.40
2019-04-10T03:07:40.339Z,2.20
2019-04-10T03:10:22.918Z,2.20
2019-04-10T03:12:41.109Z,2.20
2019-04-10T03:15:12.299Z,2.20
2019-04-10T03:17:44.093Z,1.90
2019-04-10T03:20:12.809Z,1.80
2019-04-10T03:22:41.564Z,1.90
2019-04-10T03:25:10.925Z,1.80
2019-04-10T03:27:40.588Z,1.70
2019-04-10T03:30:12.118Z,1.80
2019-04-10T03:32:50.290Z,1.60
2019-04-10T03:35:25.175Z,1.60
2019-04-10T03:37:53.626Z,1.60
2019-04-10T03:40:22.105Z,1.50
2019-04-10T03:42:50.931Z,1.20
2019-04-10T03:45:20.244Z,1.40
2019-04-10T03:47:49.412Z,1.40
2019-04-10T03:50:18.421Z,1.40
2019-04-10T03:52:47.015Z,1.30
2019-04-10T03:55:16.704Z,1.20
2019-04-10T03:57:45.380Z,1.10
2019-04-10T04:00:14.376Z,1.10
2019-04-10T04:02:42.927Z,1.10
2019-04-10T04:05:12.728Z,1.00
2019-04-10T04:07:41.354Z,0.90
2019-04-10T04:10:10.851Z,0.90
2019-04-10T04:12:39.504Z,0.80
2019-04-10T04:15:09.428Z,0.80
2019-04-10T04:17:38.431Z,0.60
2019-04-10T04:20:07.279Z,0.50
2019-04-10T04:22:36.903Z,0.40
2019-04-10T04:25:06.810Z,0.50
2019-04-10T04:27:35.764Z,0.30
2019-04-10T04:30:08.342Z,0.30
2019-04-10T04:32:37.973Z,0.30
2019-04-10T04:35:07.182Z,0.40
2019-04-10T04:37:35.827Z,0.50
2019-04-10T04:40:06.391Z,0.30
2019-04-10T04:42:35.271Z,0.40
2019-04-10T04:45:05.199Z,0.40
2019-04-10T04:47:34.179Z,0.30
2019-04-10T04:50:03.609Z,0.40
2019-04-10T04:52:32.771Z,0.40
2019-04-10T04:55:01.998Z,0.50
2019-04-10T04:57:33.730Z,0.40
2019-04-10T05:00:01.533Z,0.30
2019-04-10T05:02:30.321Z,0.40
2019-04-10T05:05:00.311Z,0.60
2019-04-10T05:07:29.347Z,0.70
2019-04-10T05:10:00.158Z,0.60
2019-04-10T05:12:28.356Z,0.60
2019-04-10T05:14:56.945Z,0.60
2019-04-10T05:17:25.458Z,0.70
2019-04-10T05:19:54.595Z,0.90
2019-04-10T05:22:24.384Z,1.00
2019-04-10T05:24:53.061Z,0.90
2019-04-10T05:27:22.612Z,1.10
2019-04-10T05:29:51.428Z,1.30
2019-04-10T05:32:21.331Z,1.40
2019-04-10T05:34:50.389Z,1.70
2019-04-10T05:37:19.350Z,1.70
2019-04-10T05:39:50.843Z,2.00
2019-04-10T05:42:18.370Z,1.90
2019-04-10T05:44:47.876Z,2.00
2019-04-10T05:47:17.071Z,2.30
2019-04-10T05:49:47.031Z,2.50
2019-04-10T05:52:16.000Z,2.60
2019-04-10T05:54:44.455Z,3.00
2019-04-10T05:57:13.280Z,3.10
2019-04-10T05:59:41.730Z,2.70
2019-04-10T06:02:10.200Z,2.90
2019-04-10T06:04:38.661Z,3.10
2019-04-10T06:07:07.186Z,3.30
2019-04-10T06:09:36.588Z,3.40
2019-04-10T06:12:05.857Z,3.80
2019-04-10T06:14:35.409Z,3.60
2019-04-10T06:17:04.354Z,3.50
2019-04-10T06:19:34.289Z,3.60
2019-04-10T06:22:03.219Z,3.80
2019-04-10T06:24:32.278Z,3.60
2019-04-10T06:27:01.886Z,3.80
2019-04-10T06:29:30.867Z,3.90
2019-04-10T06:31:59.423Z,4.20
2019-04-10T06:34:28.016Z,4.30
2019-04-10T06:36:57.643Z,3.80
2019-04-10T06:39:26.939Z,4.20
2019-04-10T06:41:56.108Z,4.50
2019-04-10T06:44:25.836Z,4.30
2019-04-10T06:46:54.977Z,4.50
2019-04-10T06:49:23.537Z,4.60
2019-04-10T06:51:52.015Z,4.70
2019-04-10T06:54:20.578Z,4.40
2019-04-10T06:56:49.083Z,4.70
2019-04-10T06:59:18.133Z,4.70
2019-04-10T07:01:51.960Z,4.50
2019-04-10T07:04:18.126Z,4.60
2019-04-10T07:06:57.943Z,4.80
2019-04-10T07:09:24.718Z,4.90
2019-04-10T07:11:56.792Z,4.70
2019-04-10T07:14:22.567Z,5.30
2019-04-10T07:17:04.225Z,5.60
2019-04-10T07:19:28.731Z,5.10
2019-04-10T07:21:58.911Z,5.40
2019-04-10T07:24:27.374Z,5.60
2019-04-10T07:26:58.050Z,5.80
2019-04-10T07:29:27.924Z,5.90
2019-04-10T07:31:56.490Z,5.60
2019-04-10T07:34:26.988Z,5.70
2019-04-10T07:36:56.092Z,5.30
2019-04-10T07:39:28.043Z,5.80
2019-04-10T07:41:55.724Z,5.60
2019-04-10T07:44:24.343Z,6.00
2019-04-10T07:46:52.950Z,6.10
2019-04-10T07:49:22.203Z,5.90
2019-04-10T07:51:52.055Z,6.00
2019-04-10T07:54:21.297Z,6.70
2019-04-10T07:56:51.539Z,6.60
2019-04-10T07:59:20.613Z,6.30
2019-04-10T08:01:49.543Z,6.50
2019-04-10T08:04:18.472Z,6.80
2019-04-10T08:06:47.055Z,6.50
2019-04-10T08:09:16.722Z,6.80
2019-04-10T08:11:46.756Z,6.90
2019-04-10T08:14:15.395Z,6.70
2019-04-10T08:16:43.852Z,6.90
2019-04-10T08:19:12.644Z,7.10
2019-04-10T08:22:01.199Z,7.00
2019-04-10T08:24:29.837Z,7.10
2019-04-10T08:26:58.358Z,7.40
2019-04-10T08:29:27.033Z,7.80
2019-04-10T08:31:56.025Z,7.70
2019-04-10T08:34:24.488Z,7.80
2019-04-10T08:36:55.043Z,8.00
2019-04-10T08:39:33.966Z,8.30
2019-04-10T08:41:54.372Z,8.20
2019-04-10T08:44:24.215Z,8.00
2019-04-10T08:46:53.203Z,7.30
2019-04-10T08:49:22.890Z,7.10
2019-04-10T08:51:52.130Z,7.10
2019-04-10T08:54:20.771Z,7.20
2019-04-10T08:56:49.269Z,7.30
2019-04-10T08:59:17.782Z,7.10
2019-04-10T09:01:47.256Z,7.20
2019-04-10T09:04:15.759Z,7.40
2019-04-10T09:06:44.239Z,7.30
2019-04-10T09:09:13.210Z,7.30
2019-04-10T09:11:41.707Z,7.90
2019-04-10T09:14:10.712Z,9.20
2019-04-10T09:16:39.643Z,9.30
2019-04-10T09:19:08.431Z,8.30
2019-04-10T09:21:36.900Z,8.10
2019-04-10T09:24:05.370Z,8.30
2019-04-10T09:26:33.911Z,8.30
2019-04-10T09:29:02.549Z,8.00
2019-04-10T09:31:31.608Z,8.40
2019-04-10T09:34:01.221Z,9.00
2019-04-10T09:36:30.191Z,10.20
2019-04-10T09:38:59.198Z,10.90
2019-04-10T09:41:28.011Z,11.60
2019-04-10T09:43:56.676Z,11.40
2019-04-10T09:46:25.156Z,11.70
2019-04-10T09:48:53.625Z,11.30
2019-04-10T09:51:22.183Z,10.40
2019-04-10T09:53:51.108Z,10.40
2019-04-10T09:56:19.663Z,10.50
2019-04-10T09:58:49.076Z,9.90
2019-04-10T10:01:17.935Z,11.30
2019-04-10T10:03:46.568Z,11.60
2019-04-10T10:06:25.353Z,12.40
2019-04-10T10:08:45.242Z,12.80
2019-04-10T10:11:13.979Z,12.70
2019-04-10T10:13:42.588Z,13.50
2019-04-10T10:16:11.168Z,12.70
2019-04-10T10:18:39.631Z,12.40
2019-04-10T10:21:08.310Z,11.60
2019-04-10T10:23:37.981Z,12.60
2019-04-10T10:26:06.596Z,11.70
2019-04-10T10:28:35.461Z,12.20
2019-04-10T10:31:04.092Z,12.60
2019-04-10T10:33:34.020Z,13.40
2019-04-10T10:36:03.302Z,12.70
2019-04-10T10:38:31.887Z,12.80
2019-04-10T10:41:01.205Z,12.20
2019-04-10T10:43:30.055Z,12.70
2019-04-10T10:45:58.992Z,13.20
2019-04-10T10:48:27.844Z,13.10
2019-04-10T10:50:56.397Z,12.20
2019-04-10T10:53:25.225Z,12.50
2019-04-10T10:55:54.046Z,12.50
2019-04-10T10:58:23.784Z,12.40
2019-04-10T11:00:53.600Z,12.90
2019-04-10T11:03:22.648Z,13.50
2019-04-10T11:05:51.447Z,13.60
2019-04-10T11:08:20.890Z,14.40
2019-04-10T11:10:54.026Z,14.00
2019-04-10T11:13:20.287Z,13.00
2019-04-10T11:15:49.919Z,13.20
2019-04-10T11:18:18.523Z,13.80
2019-04-10T11:20:48.358Z,12.70
2019-04-10T11:23:18.175Z,13.10
2019-04-10T11:25:47.926Z,13.50
2019-04-10T11:28:16.558Z,13.20
2019-04-10T11:30:45.082Z,14.00
2019-04-10T11:33:14.942Z,13.70
2019-04-10T11:35:43.969Z,13.20
2019-04-10T11:38:13.465Z,13.60
2019-04-10T11:40:42.130Z,13.70
2019-04-10T11:43:12.563Z,14.10
2019-04-10T11:45:44.113Z,14.40
2019-04-10T11:48:12.916Z,14.50
2019-04-10T11:50:43.876Z,15.00
2019-04-10T11:53:14.440Z,14.20
2019-04-10T11:55:47.843Z,14.30
2019-04-10T11:58:14.618Z,14.90
2019-04-10T12:00:51.796Z,15.30
2019-04-10T12:03:17.862Z,14.40
2019-04-10T12:05:48.038Z,14.60
2019-04-10T12:08:37.536Z,14.40
2019-04-10T12:13:19.729Z,14.40
2019-04-10T12:15:48.627Z,14.50
2019-04-10T12:18:18.298Z,15.90
2019-04-10T12:20:55.707Z,14.90
2019-04-10T12:23:25.107Z,14.30
2019-04-10T12:25:53.697Z,15.20
2019-04-10T12:28:22.215Z,15.00
2019-04-10T12:30:51.266Z,14.70
2019-04-10T12:33:21.197Z,14.60
2019-04-10T12:35:50.239Z,14.30
2019-04-10T12:38:19.326Z,13.60
2019-04-10T12:40:48.240Z,13.50
2019-04-10T12:43:16.822Z,15.20
2019-04-10T12:45:46.538Z,15.10
2019-04-10T12:48:16.609Z,14.80
2019-04-10T12:50:45.560Z,14.20
2019-04-10T12:53:15.623Z,14.50
2019-04-10T12:55:44.122Z,15.60
2019-04-10T12:58:17.023Z,15.70
2019-04-10T13:00:42.965Z,14.10
2019-04-10T13:03:11.882Z,14.60
2019-04-10T13:05:41.124Z,14.00
2019-04-10T13:08:19.027Z,14.20
2019-04-10T13:10:40.016Z,14.90
2019-04-10T13:13:09.516Z,14.80
2019-04-10T13:15:39.339Z,15.10
2019-04-10T13:18:08.424Z,14.40
2019-04-10T13:20:37.820Z,14.20
2019-04-10T13:23:06.635Z,14.40
2019-04-10T13:25:36.645Z,15.50
2019-04-10T13:28:05.556Z,15.70
2019-04-10T13:30:44.107Z,15.50
2019-04-10T13:33:06.676Z,14.80
2019-04-10T13:35:35.294Z,14.30
2019-04-10T13:38:04.444Z,14.70
2019-04-10T13:40:33.187Z,14.50
2019-04-10T13:43:01.668Z,13.90
2019-04-10T13:45:31.074Z,14.70
2019-04-10T13:47:59.789Z,15.00
2019-04-10T13:50:28.613Z,15.00
2019-04-10T13:52:57.555Z,15.10
2019-04-10T13:55:26.387Z,15.30
2019-04-10T13:57:55.242Z,14.70
2019-04-10T14:00:28.503Z,14.30
2019-04-10T14:02:56.981Z,15.30
2019-04-10T14:05:27.554Z,15.80
2019-04-10T14:07:56.451Z,15.30
2019-04-10T14:10:29.430Z,14.70
2019-04-10T14:12:59.710Z,15.10
2019-04-10T14:15:30.310Z,14.70
2019-04-10T14:17:58.476Z,14.10
2019-04-10T14:20:31.253Z,14.70
2019-04-10T14:23:04.234Z,13.40
2019-04-10T14:25:51.732Z,14.10
2019-04-10T14:28:22.328Z,14.10
2019-04-10T14:30:53.691Z,14.10
2019-04-10T14:33:23.267Z,14.40
2019-04-10T14:35:52.267Z,14.20
2019-04-10T14:38:21.191Z,13.90
2019-04-10T14:40:49.987Z,13.90
2019-04-10T14:43:18.783Z,14.10
2019-04-10T14:45:48.010Z,14.40
2019-04-10T14:48:18.284Z,14.00
2019-04-10T14:50:47.070Z,14.20
2019-04-10T14:53:15.694Z,14.60
2019-04-10T14:55:44.555Z,14.60
2019-04-10T14:58:20.891Z,14.40
2019-04-10T15:00:46.611Z,14.50
2019-04-10T15:03:16.123Z,14.20
2019-04-10T15:05:50.555Z,14.70
2019-04-10T15:08:15.581Z,14.40
2019-04-10T15:10:45.261Z,14.00
2019-04-10T15:13:19.221Z,14.10
2019-04-10T15:15:44.928Z,13.70
2019-04-10T15:18:13.546Z,14.00
2019-04-10T15:20:42.310Z,13.50
2019-04-10T15:23:11.869Z,13.70
2019-04-10T15:25:41.534Z,13.50
2019-04-10T15:28:10.555Z,13.30
2019-04-10T15:30:39.108Z,13.10
2019-04-10T15:33:07.603Z,13.10
2019-04-10T15:35:36.391Z,13.60
2019-04-10T15:38:06.021Z,13.00
2019-04-10T15:40:34.799Z,13.10
2019-04-10T15:43:03.597Z,13.10
2019-04-10T15:45:32.450Z,12.40
2019-04-10T15:48:01.780Z,12.60
2019-04-10T15:50:32.609Z,12.70
2019-04-10T15:53:02.158Z,12.30
2019-04-10T15:55:32.036Z,12.30
2019-04-10T15:58:02.389Z,12.30
2019-04-10T16:00:31.276Z,12.20
2019-04-10T16:03:00.716Z,12.40
2019-04-10T16:05:29.614Z,12.00
2019-04-10T16:07:58.701Z,11.80
2019-04-10T16:10:29.034Z,11.40
2019-04-10T16:12:59.717Z,11.30
2019-04-10T16:15:30.283Z,10.80
2019-04-10T16:18:00.394Z,11.00
2019-04-10T16:20:31.938Z,11.10
2019-04-10T16:23:12.143Z,10.70
2019-04-10T16:25:43.411Z,10.50
2019-04-10T16:28:12.750Z,10.80
2019-04-10T16:30:43.218Z,11.00
2019-04-10T16:33:12.097Z,11.30
2019-04-10T16:35:40.990Z,11.30
2019-04-10T16:38:09.462Z,10.90
2019-04-10T16:40:38.455Z,11.40
2019-04-10T16:43:07.873Z,11.10
2019-04-10T16:45:36.552Z,11.10
2019-04-10T16:48:06.349Z,10.70
2019-04-10T16:50:36.303Z,10.50
2019-04-10T16:55:34.631Z,9.70
2019-04-10T16:58:03.603Z,9.50
2019-04-10T17:00:32.253Z,9.40
2019-04-10T17:03:01.842Z,9.20
2019-04-10T17:05:33.223Z,9.20
2019-04-10T17:08:00.698Z,9.10
2019-04-10T17:10:29.517Z,9.00
2019-04-10T17:12:58.316Z,8.90
2019-04-10T17:15:28.050Z,8.80
2019-04-10T17:17:56.951Z,8.80
2019-04-10T17:20:26.872Z,8.80
2019-04-10T17:22:56.386Z,8.60
2019-04-10T17:25:26.259Z,8.60
2019-04-10T17:27:56.181Z,8.50
2019-04-10T17:30:25.476Z,8.40
2019-04-10T17:32:54.336Z,8.40
2019-04-10T17:35:23.334Z,8.40
2019-04-10T17:37:52.275Z,8.30
2019-04-10T17:40:31.037Z,8.20
2019-04-10T17:42:52.582Z,8.00
2019-04-10T17:45:22.834Z,7.90
2019-04-10T17:47:51.619Z,7.80
2019-04-10T17:50:20.431Z,7.70
2019-04-10T17:52:49.150Z,7.60
2019-04-10T17:55:17.725Z,7.50
2019-04-10T17:57:47.773Z,7.50
2019-04-10T18:00:27.187Z,7.30
2019-04-10T18:02:57.061Z,7.20
2019-04-10T18:05:26.609Z,7.10
2019-04-10T18:07:56.633Z,7.00
2019-04-10T18:10:27.711Z,6.80
2019-04-10T18:12:56.657Z,6.60
2019-04-10T18:15:26.151Z,6.40
2019-04-10T18:17:55.585Z,6.30
2019-04-10T18:20:24.256Z,6.10
2019-04-10T18:22:53.310Z,6.10
2019-04-10T18:25:22.176Z,5.90
2019-04-10T18:27:50.803Z,5.50
2019-04-10T18:30:19.558Z,5.40
2019-04-10T18:32:48.167Z,5.30
2019-04-10T18:35:16.924Z,5.10
2019-04-10T18:37:45.369Z,5.00
2019-04-10T18:40:14.853Z,5.00
2019-04-10T18:42:43.463Z,5.00
2019-04-10T18:45:13.329Z,4.90
2019-04-10T18:47:42.315Z,4.80
2019-04-10T18:50:11.950Z,4.70
2019-04-10T18:52:40.551Z,4.70
2019-04-10T18:55:09.169Z,4.50
2019-04-10T18:57:38.857Z,4.40
2019-04-10T19:00:16.863Z,4.30
2019-04-10T19:02:57.155Z,4.20
2019-04-10T19:05:27.851Z,4.00
2019-04-10T19:07:57.302Z,3.80
2019-04-10T19:10:26.376Z,3.70
2019-04-10T19:12:55.316Z,3.60
2019-04-10T19:15:24.408Z,3.50
2019-04-10T19:17:53.134Z,3.40
2019-04-10T19:20:22.773Z,3.30
2019-04-10T19:22:52.784Z,3.20
2019-04-10T19:25:22.650Z,2.60
2019-04-10T19:27:51.266Z,3.00
2019-04-10T19:30:21.927Z,2.80
2019-04-10T19:32:50.396Z,2.80
2019-04-10T19:35:19.879Z,2.70
2019-04-10T19:37:50.465Z,2.70
2019-04-10T19:40:19.387Z,2.70
2019-04-10T19:42:49.250Z,2.50
2019-04-10T19:45:17.851Z,2.50
2019-04-10T19:47:46.603Z,2.40
2019-04-10T19:50:15.181Z,2.40
2019-04-10T19:52:44.650Z,2.30
2019-04-10T19:55:13.661Z,2.00
2019-04-10T19:57:42.143Z,2.00
2019-04-10T20:00:12.516Z,2.00
2019-04-10T20:02:41.772Z,2.00
2019-04-10T20:05:10.415Z,1.70
2019-04-10T20:07:39.300Z,1.80
2019-04-10T20:10:08.805Z,1.90
2019-04-10T20:12:37.814Z,1.80
2019-04-10T20:15:07.875Z,1.80
2019-04-10T20:17:36.395Z,1.70
2019-04-10T20:20:06.889Z,1.40
2019-04-10T20:22:35.455Z,1.50
2019-04-10T20:25:04.223Z,1.50
2019-04-10T20:27:32.688Z,1.50
2019-04-10T20:30:01.646Z,1.40
2019-04-10T20:32:30.418Z,1.30
2019-04-10T20:34:59.997Z,1.10
2019-04-10T20:37:29.089Z,1.10
2019-04-10T20:39:58.416Z,1.00
2019-04-10T20:42:26.893Z,1.00
2019-04-10T20:44:56.723Z,0.90
2019-04-10T20:47:25.346Z,0.80
2019-04-10T20:49:53.799Z,0.80
2019-04-10T20:52:22.588Z,0.60
2019-04-10T20:54:51.376Z,0.50
2019-04-10T20:57:21.407Z,0.40
2019-04-10T20:59:51.036Z,0.40
2019-04-10T21:02:20.229Z,0.30
2019-04-10T21:04:57.504Z,0.30
2019-04-10T21:07:19.327Z,0.30
2019-04-10T21:09:48.199Z,0.20
2019-04-10T21:12:20.520Z,0.10
2019-04-10T21:14:47.995Z,0.00
2019-04-10T21:17:16.863Z,0.00
2019-04-10T21:19:45.425Z,0.00
2019-04-10T21:22:14.203Z,0.00
2019-04-10T21:24:43.413Z,-0.20
2019-04-10T21:27:11.976Z,-0.20
2019-04-10T21:29:57.376Z,-0.20
2019-04-10T21:32:46.041Z,-0.20
2019-04-10T21:35:16.135Z,-0.20
2019-04-10T21:37:44.612Z,-0.40
2019-04-10T21:40:14.483Z,-0.40
2019-04-10T21:42:42.991Z,-0.60
2019-04-10T21:45:11.620Z,-0.60
2019-04-10T21:47:40.219Z,-0.60
2019-04-10T21:50:09.539Z,-0.60
2019-04-10T21:52:39.225Z,-0.60
2019-04-10T21:55:08.973Z,-0.70
2019-04-10T21:57:38.414Z,-0.70
2019-04-10T22:00:10.093Z,-0.80
2019-04-10T22:02:38.613Z,-0.90
2019-04-10T22:05:08.149Z,-0.90
2019-04-10T22:07:38.767Z,-1.00
2019-04-10T22:10:28.098Z,-1.00
2019-04-10T22:12:57.437Z,-0.90
2019-04-10T22:15:28.775Z,-1.20
2019-04-10T22:17:58.639Z,-1.20
2019-04-10T22:20:27.672Z,-1.20
2019-04-10T22:22:57.605Z,-1.30
2019-04-10T22:25:27.628Z,-1.20
2019-04-10T22:27:56.269Z,-1.10
2019-04-10T22:30:25.136Z,-1.20
2019-04-10T22:32:53.743Z,-1.10
2019-04-10T22:35:22.219Z,-1.20
2019-04-10T22:37:50.675Z,-1.30
2019-04-10T22:40:19.344Z,-1.20
2019-04-10T22:42:48.662Z,-1.30
2019-04-10T22:45:32.802Z,-1.30
2019-04-10T22:48:01.340Z,-1.40
2019-04-10T22:50:31.026Z,-1.30
2019-04-10T22:53:01.212Z,-1.30
2019-04-10T22:55:30.239Z,-1.30
2019-04-10T22:57:58.694Z,-1.40
2019-04-10T23:00:33.369Z,-1.40
2019-04-10T23:03:03.168Z,-1.50
2019-04-10T23:05:32.337Z,-1.60
2019-04-10T23:08:01.201Z,-1.60
2019-04-10T23:10:29.866Z,-1.70
2019-04-10T23:13:04.075Z,-1.60
2019-04-10T23:15:29.263Z,-1.60
2019-04-10T23:17:57.715Z,-1.60
2019-04-10T23:20:26.186Z,-1.60
2019-04-10T23:22:54.848Z,-1.60
2019-04-10T23:25:24.703Z,-1.70
2019-04-10T23:27:56.234Z,-1.70
2019-04-10T23:30:24.608Z,-1.70
2019-04-10T23:32:53.583Z,-1.70
2019-04-10T23:35:22.599Z,-1.80
2019-04-10T23:37:51.383Z,-1.70
2019-04-10T23:40:20.880Z,-1.80
2019-04-10T23:43:01.289Z,-1.90
2019-04-10T23:45:20.119Z,-1.90
2019-04-10T23:47:48.785Z,-1.90
2019-04-10T23:50:18.452Z,-2.00
2019-04-10T23:52:47.928Z,-2.00
2019-04-10T23:55:17.646Z,-2.00
2019-04-10T23:57:46.645Z,-2.10
